ěÝzenÝ letovÚho provozu ╚eskÚ republiky
Letiste: LKMT Aktualizace: 28.11.2021 00:30:28  UTC
 METAR LKMT 28.11. 00:30 ...
METAR LKMT 280030Z 23004KT 6000 OVC010 01/01 Q0998 NOSIG RMK REG QNH 0993=
 TAF LKMT 27.11. 23:00 ...
TAF LKMT 272300Z 2800/2906 22008KT 6000 BKN018      TEMPO 2800/2805 4000 -SN BR BKN008      BECMG 2806/2808 VRB02KT 4000 -SN BR BKN008      TEMPO 2808/2906 2500 RASN BR OVC004      PROB30 TEMPO 2809/2816 1200 SNRA BR OVC002      PROB30 TEMPO 2816/2906 1800 SN BR OVC004=